Time;durP1;ratioP1;P1;durP2;ratioP2;P2;SDS_P1;SDS_P2;PMS_P1;PMS_P2;Temp;Humidity;BMP_temperature;BMP_pressure;BME280_temperature;BME280_humidity;BME280_pressure;Samples;Min_cycle;Max_cycle;Signal;HPM_P1;HPM_P2
2024/04/20 00:01:04;;;;;;;15.63;3.00;;;;;;;;;;5503743;26;20223;-60
2024/04/20 00:03:30;;;;;;;23.20;2.92;;;;;;;;;;5500884;26;20009;-60
2024/04/20 00:05:55;;;;;;;12.87;2.07;;;;;;;;;;5499359;26;20012;-59
2024/04/20 00:08:20;;;;;;;10.17;1.87;;;;;;;;;;5506127;26;19995;-59
2024/04/20 00:10:46;;;;;;;6.43;1.93;;;;;;;;;;5504987;26;20051;-59
2024/04/20 00:13:11;;;;;;;11.67;2.00;;;;;;;;;;5506037;26;20041;-59
2024/04/20 00:15:41;;;;;;;6.77;1.63;;;;;;;;;;5503146;26;20494;-60
2024/04/20 00:18:06;;;;;;;8.05;1.73;;;;;;;;;;5489284;26;20002;-60
2024/04/20 00:20:32;;;;;;;8.50;2.00;;;;;;;;;;5489287;26;20350;-61
2024/04/20 00:22:59;;;;;;;8.82;1.50;;;;;;;;;;5493245;26;19999;-60
2024/04/20 00:25:24;;;;;;;19.73;2.28;;;;;;;;;;5495263;26;20012;-60
2024/04/20 00:27:50;;;;;;;6.47;1.38;;;;;;;;;;5495048;26;20002;-60
2024/04/20 00:30:16;;;;;;;7.10;1.50;;;;;;;;;;5501136;26;20021;-60
2024/04/20 00:32:41;;;;;;;10.85;2.42;;;;;;;;;;5500538;26;20079;-60
2024/04/20 00:35:06;;;;;;;5.20;1.83;;;;;;;;;;5500693;26;20006;-59
2024/04/20 00:37:32;;;;;;;6.87;1.40;;;;;;;;;;5501024;26;20147;-59
2024/04/20 00:39:57;;;;;;;7.93;1.60;;;;;;;;;;5503857;26;20227;-60
2024/04/20 00:42:22;;;;;;;7.23;1.83;;;;;;;;;;5494313;26;20006;-60
2024/04/20 00:44:48;;;;;;;6.00;2.40;;;;;;;;;;5490963;26;20026;-60
2024/04/20 00:47:13;;;;;;;9.45;1.50;;;;;;;;;;5493643;26;19999;-60
2024/04/20 00:49:39;;;;;;;6.93;1.90;;;;;;;;;;5494079;26;20012;-60
2024/04/20 00:52:05;;;;;;;7.78;1.55;;;;;;;;;;5493954;26;20032;-60
2024/04/20 00:54:30;;;;;;;;;;;;;;;;;;5491587;26;20017;-60
2024/04/20 00:56:56;;;;;;;6.13;2.13;;;;;;;;;;5496770;26;20022;-60
2024/04/20 00:59:22;;;;;;;3.80;1.30;;;;;;;;;;5488850;26;20006;-60
2024/04/20 01:01:48;;;;;;;3.25;1.30;;;;;;;;;;5492917;26;20008;-60
2024/04/20 01:04:13;;;;;;;5.30;1.63;;;;;;;;;;5494620;26;19998;-61
2024/04/20 01:06:39;;;;;;;2.07;1.10;;;;;;;;;;5495364;26;20008;-61
2024/04/20 01:09:04;;;;;;;3.73;1.23;;;;;;;;;;5493889;26;20275;-61
2024/04/20 01:11:30;;;;;;;7.23;1.37;;;;;;;;;;5493718;26;20314;-59
2024/04/20 01:13:59;;;;;;;5.63;1.33;;;;;;;;;;5491916;26;20005;-62
2024/04/20 01:16:24;;;;;;;8.18;1.20;;;;;;;;;;5503972;26;20047;-60
2024/04/20 01:18:50;;;;;;;4.78;1.30;;;;;;;;;;5501954;26;20030;-60
2024/04/20 01:21:16;;;;;;;5.43;1.53;;;;;;;;;;5497552;26;20022;-59
2024/04/20 01:23:43;;;;;;;5.65;1.40;;;;;;;;;;5496659;26;20224;-60
2024/04/20 01:26:10;;;;;;;4.78;1.60;;;;;;;;;;5487556;26;20006;-59
2024/04/20 01:28:36;;;;;;;6.07;1.70;;;;;;;;;;5489437;26;20010;-61
2024/04/20 01:31:14;;;;;;;4.07;1.63;;;;;;;;;;5425695;26;20332;-60
2024/04/20 01:33:39;;;;;;;6.33;1.63;;;;;;;;;;5399169;26;20007;-59
2024/04/20 01:36:05;;;;;;;11.68;2.28;;;;;;;;;;5396995;26;20219;-60
2024/04/20 01:38:30;;;;;;;3.93;1.23;;;;;;;;;;5398989;26;20014;-61
2024/04/20 01:40:56;;;;;;;12.30;1.70;;;;;;;;;;5401095;26;20267;-60
2024/04/20 01:43:22;;;;;;;10.45;1.85;;;;;;;;;;5407729;26;20023;-61
2024/04/20 01:45:47;;;;;;;4.67;1.63;;;;;;;;;;5409604;26;20063;-60
2024/04/20 01:48:13;;;;;;;14.00;2.03;;;;;;;;;;5410968;26;20277;-61
2024/04/20 01:50:38;;;;;;;10.00;1.90;;;;;;;;;;5409779;26;20058;-60
2024/04/20 01:53:04;;;;;;;17.50;2.38;;;;;;;;;;5405210;26;20057;-61
2024/04/20 01:55:30;;;;;;;8.55;1.83;;;;;;;;;;5409316;26;20011;-61
2024/04/20 01:57:55;;;;;;;7.85;1.90;;;;;;;;;;5379485;26;19999;-61
2024/04/20 02:00:21;;;;;;;10.40;1.83;;;;;;;;;;5410269;26;20000;-60
2024/04/20 02:02:46;;;;;;;9.17;1.60;;;;;;;;;;5407224;26;20248;-61
2024/04/20 02:05:13;;;;;;;10.52;1.85;;;;;;;;;;5413175;26;20317;-60
2024/04/20 02:07:38;;;;;;;8.13;1.57;;;;;;;;;;5411321;26;20011;-61
2024/04/20 02:10:05;;;;;;;11.18;1.35;;;;;;;;;;5406459;26;20050;-62
2024/04/20 02:12:30;;;;;;;;;;;;;;;;;;5406382;26;20731;-60
2024/04/20 02:14:56;;;;;;;6.20;1.10;;;;;;;;;;5411182;26;19988;-60
2024/04/20 02:17:22;;;;;;;7.53;1.50;;;;;;;;;;5377755;26;20258;-60
2024/04/20 02:19:47;;;;;;;2.83;0.70;;;;;;;;;;5411743;26;20010;-60
2024/04/20 02:22:13;;;;;;;4.75;1.38;;;;;;;;;;5409683;26;20004;-60
2024/04/20 02:24:39;;;;;;;9.50;1.50;;;;;;;;;;5411051;26;20003;-60
2024/04/20 02:27:04;;;;;;;2.97;1.00;;;;;;;;;;5412262;26;20010;-60
2024/04/20 02:29:30;;;;;;;13.68;1.83;;;;;;;;;;5411699;26;20008;-60
2024/04/20 02:31:55;;;;;;;6.30;1.63;;;;;;;;;;5405631;26;20000;-61
2024/04/20 02:34:21;;;;;;;7.90;1.33;;;;;;;;;;5407062;26;20000;-60
2024/04/20 02:36:46;;;;;;;5.43;1.50;;;;;;;;;;5408822;26;20008;-61
2024/04/20 02:39:12;;;;;;;12.18;1.55;;;;;;;;;;5410366;26;20011;-61
2024/04/20 02:41:37;;;;;;;5.87;1.20;;;;;;;;;;5398071;26;20007;-62
2024/04/20 02:44:03;;;;;;;9.40;1.73;;;;;;;;;;5395153;26;20011;-60
2024/04/20 02:46:29;;;;;;;6.50;1.50;;;;;;;;;;5388801;26;20020;-60
2024/04/20 02:48:54;;;;;;;6.38;1.60;;;;;;;;;;5389604;26;20004;-59
2024/04/20 02:51:19;;;;;;;9.00;1.67;;;;;;;;;;5387422;26;20008;-59
2024/04/20 02:53:45;;;;;;;25.73;3.00;;;;;;;;;;5384145;26;20230;-60
2024/04/20 02:56:10;;;;;;;22.40;2.53;;;;;;;;;;5387434;26;20242;-62
2024/04/20 02:58:36;;;;;;;15.05;1.88;;;;;;;;;;5391845;26;19996;-60
2024/04/20 03:01:02;;;;;;;12.07;2.67;;;;;;;;;;5386939;26;20008;-60
2024/04/20 03:03:28;;;;;;;21.60;3.35;;;;;;;;;;5389935;26;20033;-61
2024/04/20 03:05:54;;;;;;;22.75;3.55;;;;;;;;;;5389907;26;20011;-59
2024/04/20 03:08:19;;;;;;;18.05;3.65;;;;;;;;;;5388913;26;20016;-60
2024/04/20 03:10:45;;;;;;;39.73;4.23;;;;;;;;;;5384428;26;20055;-59
2024/04/20 03:13:10;;;;;;;25.23;3.60;;;;;;;;;;5387134;26;20008;-61
2024/04/20 03:15:36;;;;;;;24.90;3.77;;;;;;;;;;5389400;26;20000;-59
2024/04/20 03:18:02;;;;;;;26.20;3.65;;;;;;;;;;5381092;26;20004;-59
2024/04/20 03:20:27;;;;;;;22.05;3.17;;;;;;;;;;5388341;26;20007;-59
2024/04/20 03:22:53;;;;;;;17.27;4.43;;;;;;;;;;5391588;26;20029;-61
2024/04/20 03:25:18;;;;;;;23.60;3.97;;;;;;;;;;5389329;26;20015;-62
2024/04/20 03:27:45;;;;;;;13.43;3.07;;;;;;;;;;5391445;26;20000;-58
2024/04/20 03:30:11;;;;;;;34.85;4.13;;;;;;;;;;5392603;26;20008;-60
2024/04/20 03:32:36;;;;;;;20.93;3.13;;;;;;;;;;5388136;26;20012;-58
2024/04/20 03:35:03;;;;;;;24.30;3.77;;;;;;;;;;5393619;26;20290;-59
2024/04/20 03:37:28;;;;;;;25.65;3.97;;;;;;;;;;5392780;26;20242;-59
2024/04/20 03:39:54;;;;;;;25.83;3.10;;;;;;;;;;5391073;26;20047;-60
2024/04/20 03:42:19;;;;;;;33.28;3.97;;;;;;;;;;5393705;26;19996;-59
2024/04/20 03:44:45;;;;;;;25.37;4.43;;;;;;;;;;5390542;26;20006;-60
2024/04/20 03:47:10;;;;;;;16.17;3.00;;;;;;;;;;5392657;26;20250;-61
2024/04/20 03:49:36;;;;;;;30.20;3.85;;;;;;;;;;5390507;26;19993;-58
2024/04/20 03:52:02;;;;;;;23.10;3.88;;;;;;;;;;5392699;26;20016;-60
2024/04/20 03:54:27;;;;;;;22.15;4.18;;;;;;;;;;5393110;26;20000;-61
2024/04/20 03:56:52;;;;;;;18.80;5.07;;;;;;;;;;5365753;26;19996;-60
2024/04/20 03:59:18;;;;;;;28.17;3.50;;;;;;;;;;5391027;26;20002;-60
2024/04/20 04:01:43;;;;;;;17.87;3.93;;;;;;;;;;5384560;26;20020;-61
2024/04/20 04:04:09;;;;;;;20.15;3.53;;;;;;;;;;5380115;26;20016;-59
2024/04/20 04:06:35;;;;;;;23.75;2.97;;;;;;;;;;5388038;26;20027;-62
2024/04/20 04:09:00;;;;;;;26.38;3.60;;;;;;;;;;5390019;26;20000;-59
2024/04/20 04:11:26;;;;;;;19.20;2.93;;;;;;;;;;5391604;26;19996;-58
2024/04/20 04:13:52;;;;;;;22.27;4.03;;;;;;;;;;5391203;26;20222;-59
2024/04/20 04:16:17;;;;;;;15.32;3.75;;;;;;;;;;5391201;26;20003;-60
2024/04/20 04:18:43;;;;;;;24.97;3.53;;;;;;;;;;5362374;26;20224;-58
2024/04/20 04:21:10;;;;;;;25.65;4.35;;;;;;;;;;5393516;26;19992;-59
2024/04/20 04:23:36;;;;;;;29.00;3.55;;;;;;;;;;5385920;26;19992;-57
2024/04/20 04:26:03;;;;;;;26.42;3.13;;;;;;;;;;5393823;26;19996;-58
2024/04/20 04:28:29;;;;;;;22.83;2.88;;;;;;;;;;5381398;26;20019;-58
2024/04/20 04:30:54;;;;;;;24.00;3.88;;;;;;;;;;5389968;26;20000;-59
2024/04/20 04:33:19;;;;;;;33.40;3.73;;;;;;;;;;5378955;26;20001;-59
2024/04/20 04:35:45;;;;;;;40.10;4.47;;;;;;;;;;5383106;26;20242;-59
2024/04/20 04:38:11;;;;;;;30.40;3.80;;;;;;;;;;5376940;26;20008;-60
2024/04/20 04:40:36;;;;;;;14.00;1.93;;;;;;;;;;5382638;26;20000;-58
2024/04/20 04:43:02;;;;;;;38.35;4.28;;;;;;;;;;5383617;26;20007;-60
2024/04/20 04:45:27;;;;;;;23.87;3.47;;;;;;;;;;5386567;26;20031;-58
2024/04/20 04:47:52;;;;;;;26.90;4.50;;;;;;;;;;5392983;26;20013;-59
2024/04/20 04:50:18;;;;;;;17.37;3.20;;;;;;;;;;5394865;26;19996;-59
2024/04/20 04:52:43;;;;;;;26.37;3.03;;;;;;;;;;5391882;26;20004;-59
2024/04/20 04:55:08;;;;;;;28.02;3.63;;;;;;;;;;5390132;26;20011;-60
2024/04/20 04:57:34;;;;;;;36.87;4.63;;;;;;;;;;5394288;26;20008;-59
2024/04/20 04:59:59;;;;;;;22.92;4.40;;;;;;;;;;5396142;26;20572;-61
2024/04/20 05:02:25;;;;;;;22.33;3.13;;;;;;;;;;5389260;26;20048;-58
2024/04/20 05:04:50;;;;;;;19.13;2.93;;;;;;;;;;5389939;26;20306;-58
2024/04/20 05:07:15;;;;;;;25.70;2.63;;;;;;;;;;5394788;26;20004;-59
2024/04/20 05:09:41;;;;;;;23.57;3.13;;;;;;;;;;5364715;26;19993;-61
2024/04/20 05:12:07;;;;;;;17.23;2.97;;;;;;;;;;5361940;26;19992;-59
2024/04/20 05:14:32;;;;;;;18.07;2.87;;;;;;;;;;5376507;26;20008;-58
2024/04/20 05:16:58;;;;;;;16.43;3.83;;;;;;;;;;5389320;26;20277;-58
2024/04/20 05:19:23;;;;;;;27.10;3.60;;;;;;;;;;5394654;26;20226;-58
2024/04/20 05:21:49;;;;;;;22.30;4.50;;;;;;;;;;5391141;26;20529;-58
2024/04/20 05:24:15;;;;;;;13.75;2.30;;;;;;;;;;5392896;26;20016;-59
2024/04/20 05:26:40;;;;;;;21.95;3.70;;;;;;;;;;5392502;26;20059;-59
2024/04/20 05:29:06;;;;;;;20.13;2.83;;;;;;;;;;5381444;26;20000;-59
2024/04/20 05:31:31;;;;;;;18.37;2.60;;;;;;;;;;5385767;26;19996;-59
2024/04/20 05:33:57;;;;;;;29.00;3.00;;;;;;;;;;5383713;26;20345;-59
2024/04/20 05:36:22;;;;;;;22.42;3.38;;;;;;;;;;5386558;26;20011;-58
2024/04/20 05:38:47;;;;;;;15.23;2.27;;;;;;;;;;5385717;26;19993;-59
2024/04/20 05:41:13;;;;;;;24.02;2.90;;;;;;;;;;5385473;26;20000;-61
2024/04/20 05:43:39;;;;;;;16.43;3.00;;;;;;;;;;5378407;26;19997;-58
2024/04/20 05:46:05;;;;;;;22.73;3.10;;;;;;;;;;5380912;26;20230;-57
2024/04/20 05:48:33;;;;;;;11.80;2.10;;;;;;;;;;5381153;26;20012;-58
2024/04/20 05:50:59;;;;;;;11.70;2.85;;;;;;;;;;5375928;26;20063;-57
2024/04/20 05:53:24;;;;;;;18.13;2.67;;;;;;;;;;5385844;26;20000;-58
2024/04/20 05:55:50;;;;;;;16.90;2.33;;;;;;;;;;5380013;26;20314;-57
2024/04/20 05:58:15;;;;;;;12.83;2.60;;;;;;;;;;5384052;26;20234;-56
2024/04/20 06:00:41;;;;;;;20.63;3.40;;;;;;;;;;5381845;26;20272;-59
2024/04/20 06:03:07;;;;;;;13.65;2.05;;;;;;;;;;5353152;26;20032;-59
2024/04/20 06:05:33;;;;;;;17.25;2.35;;;;;;;;;;5381078;26;20011;-59
2024/04/20 06:07:59;;;;;;;16.08;2.05;;;;;;;;;;5380518;26;20011;-60
2024/04/20 06:10:25;;;;;;;13.00;2.83;;;;;;;;;;5385169;26;19997;-57
2024/04/20 06:12:51;;;;;;;12.77;2.20;;;;;;;;;;5380259;26;20262;-58
2024/04/20 06:15:16;;;;;;;16.50;2.50;;;;;;;;;;5350425;26;20004;-57
2024/04/20 06:17:42;;;;;;;10.70;2.40;;;;;;;;;;5387532;26;19997;-60
2024/04/20 06:20:08;;;;;;;15.07;2.65;;;;;;;;;;5388703;26;20050;-58
2024/04/20 06:22:33;;;;;;;16.45;2.40;;;;;;;;;;5374322;26;19997;-58
2024/04/20 06:25:00;;;;;;;14.40;2.40;;;;;;;;;;5378737;26;20047;-57
2024/04/20 06:27:26;;;;;;;10.98;2.47;;;;;;;;;;5384401;26;20004;-57
2024/04/20 06:29:51;;;;;;;10.50;1.80;;;;;;;;;;5394195;26;20011;-59
2024/04/20 06:32:17;;;;;;;17.47;2.00;;;;;;;;;;5393152;26;20020;-60
2024/04/20 06:34:43;;;;;;;17.53;3.23;;;;;;;;;;5359762;26;20566;-58
2024/04/20 06:37:09;;;;;;;;;;;;;;;;;;5364775;26;20020;-57
2024/04/20 06:39:35;;;;;;;13.32;2.55;;;;;;;;;;5395549;26;19933;-58
2024/04/20 06:42:00;;;;;;;15.57;2.33;;;;;;;;;;5366224;26;20013;-58
2024/04/20 06:44:26;;;;;;;17.80;3.97;;;;;;;;;;5390551;26;20270;-59
2024/04/20 06:46:52;;;;;;;12.05;2.75;;;;;;;;;;5392188;26;20280;-57
2024/04/20 06:49:18;;;;;;;12.75;2.05;;;;;;;;;;5386058;26;20027;-57
2024/04/20 06:51:44;;;;;;;11.47;1.70;;;;;;;;;;5382121;26;20001;-58
2024/04/20 06:54:09;;;;;;;16.98;2.47;;;;;;;;;;5382013;26;20150;-56
2024/04/20 06:56:35;;;;;;;15.75;3.33;;;;;;;;;;5376560;26;20039;-60
2024/04/20 06:59:01;;;;;;;15.05;2.33;;;;;;;;;;5378607;26;19993;-59
2024/04/20 07:01:26;;;;;;;6.50;1.52;;;;;;;;;;5384131;26;20040;-57
2024/04/20 07:03:52;;;;;;;13.07;2.63;;;;;;;;;;5381638;26;19996;-59
2024/04/20 07:06:18;;;;;;;17.27;2.25;;;;;;;;;;5383279;26;20008;-58
2024/04/20 07:08:43;;;;;;;8.27;2.03;;;;;;;;;;5391188;26;20011;-59
2024/04/20 07:11:09;;;;;;;13.18;2.05;;;;;;;;;;5388064;26;20340;-57
2024/04/20 07:13:35;;;;;;;9.25;1.85;;;;;;;;;;5386637;26;20008;-58
2024/04/20 07:16:01;;;;;;;5.27;1.50;;;;;;;;;;5345838;26;20003;-58
2024/04/20 07:18:27;;;;;;;3.22;0.98;;;;;;;;;;5389295;26;20226;-56
2024/04/20 07:20:54;;;;;;;6.53;1.58;;;;;;;;;;5388081;26;20004;-59
2024/04/20 07:23:19;;;;;;;;;;;;;;;;;;5374439;26;20011;-59
2024/04/20 07:25:45;;;;;;;11.93;2.10;;;;;;;;;;5375654;26;20021;-58
2024/04/20 07:28:10;;;;;;;7.22;1.67;;;;;;;;;;5387085;26;20083;-59
2024/04/20 07:30:36;;;;;;;12.45;2.10;;;;;;;;;;5391024;26;20001;-59
2024/04/20 07:33:01;;;;;;;3.75;1.05;;;;;;;;;;5387115;26;20008;-60
2024/04/20 07:35:27;;;;;;;9.52;1.70;;;;;;;;;;5379894;26;19997;-58
2024/04/20 07:37:52;;;;;;;6.80;1.70;;;;;;;;;;5384455;26;20001;-59
2024/04/20 07:40:18;;;;;;;9.35;2.63;;;;;;;;;;5388419;26;19997;-59
2024/04/20 07:42:43;;;;;;;10.27;1.47;;;;;;;;;;5388194;26;19996;-59
2024/04/20 07:45:09;;;;;;;13.90;2.73;;;;;;;;;;5381550;26;20050;-60
2024/04/20 07:47:34;;;;;;;13.47;2.23;;;;;;;;;;5388323;26;20012;-61
2024/04/20 07:50:00;;;;;;;6.07;2.08;;;;;;;;;;5386410;26;20042;-59
2024/04/20 07:52:25;;;;;;;15.40;2.63;;;;;;;;;;5386321;26;20051;-58
2024/04/20 07:54:51;;;;;;;14.82;2.42;;;;;;;;;;5379892;26;20007;-61
2024/04/20 07:57:16;;;;;;;12.10;2.20;;;;;;;;;;5376741;26;20020;-57
2024/04/20 07:59:41;;;;;;;10.65;1.80;;;;;;;;;;5371259;26;20535;-57
2024/04/20 08:02:07;;;;;;;13.10;2.70;;;;;;;;;;5372898;26;20027;-60
2024/04/20 08:04:32;;;;;;;12.17;2.20;;;;;;;;;;5377152;26;20017;-59
2024/04/20 08:06:57;;;;;;;7.38;1.20;;;;;;;;;;5375084;26;19997;-59
2024/04/20 08:09:23;;;;;;;18.95;2.72;;;;;;;;;;5372409;26;20051;-60
2024/04/20 08:11:49;;;;;;;9.27;2.45;;;;;;;;;;5345781;26;20061;-61
2024/04/20 08:14:14;;;;;;;9.13;2.27;;;;;;;;;;5379964;26;19997;-59
2024/04/20 08:16:39;;;;;;;12.00;2.10;;;;;;;;;;5379244;26;19997;-58
2024/04/20 08:19:05;;;;;;;7.87;1.60;;;;;;;;;;5370375;26;20005;-60
2024/04/20 08:21:30;;;;;;;10.80;1.30;;;;;;;;;;5393411;26;20012;-57
2024/04/20 08:23:55;;;;;;;10.97;1.97;;;;;;;;;;5391302;26;20004;-57
2024/04/20 08:26:21;;;;;;;3.38;1.10;;;;;;;;;;5390042;26;20008;-60
2024/04/20 08:28:46;;;;;;;10.38;2.60;;;;;;;;;;5393877;26;20011;-60
2024/04/20 08:31:12;;;;;;;6.87;1.50;;;;;;;;;;5392462;26;20065;-58
2024/04/20 08:33:37;;;;;;;17.60;2.87;;;;;;;;;;5391658;26;20234;-59
2024/04/20 08:36:03;;;;;;;6.90;1.40;;;;;;;;;;5371530;26;20060;-58
2024/04/20 08:38:28;;;;;;;8.27;1.55;;;;;;;;;;5377424;26;20005;-57
2024/04/20 08:40:59;;;;;;;9.30;1.70;;;;;;;;;;5375142;26;20009;-60
2024/04/20 08:43:25;;;;;;;11.77;1.80;;;;;;;;;;5375791;26;20017;-58
2024/04/20 08:45:53;;;;;;;11.95;2.38;;;;;;;;;;5342340;26;20235;-57
2024/04/20 08:48:20;;;;;;;4.37;1.27;;;;;;;;;;5377117;26;20005;-59
2024/04/20 08:50:46;;;;;;;7.20;1.63;;;;;;;;;;5378725;26;20336;-58
2024/04/20 08:53:12;;;;;;;8.25;1.27;;;;;;;;;;5385806;26;20311;-59
2024/04/20 08:55:37;;;;;;;4.68;0.98;;;;;;;;;;5372747;26;20009;-59
2024/04/20 08:58:03;;;;;;;9.30;1.45;;;;;;;;;;5377485;26;20055;-58
2024/04/20 09:00:29;;;;;;;11.20;1.42;;;;;;;;;;5378938;26;20022;-59
2024/04/20 09:02:55;;;;;;;3.73;1.53;;;;;;;;;;5379193;26;20058;-59
2024/04/20 09:05:21;;;;;;;10.20;1.93;;;;;;;;;;5370472;26;20251;-59
2024/04/20 09:07:47;;;;;;;9.57;1.40;;;;;;;;;;5372914;26;20316;-60
2024/04/20 09:10:12;;;;;;;10.38;1.77;;;;;;;;;;5378312;26;20001;-58
2024/04/20 09:12:38;;;;;;;6.53;1.60;;;;;;;;;;5371759;26;19996;-58
2024/04/20 09:15:09;;;;;;;11.53;2.10;;;;;;;;;;5376407;26;20000;-59
2024/04/20 09:17:35;;;;;;;5.97;1.70;;;;;;;;;;5375970;26;20001;-56
2024/04/20 09:20:01;;;;;;;10.52;1.70;;;;;;;;;;5370915;26;20311;-56
2024/04/20 09:22:26;;;;;;;11.82;2.13;;;;;;;;;;5371697;26;19997;-58
2024/04/20 09:25:05;;;;;;;7.67;1.50;;;;;;;;;;5372023;26;20008;-58
2024/04/20 09:27:30;;;;;;;7.57;2.77;;;;;;;;;;5375092;26;20050;-58
2024/04/20 09:29:56;;;;;;;8.20;1.90;;;;;;;;;;5370285;26;20242;-59
2024/04/20 09:32:27;;;;;;;12.05;2.08;;;;;;;;;;5375384;26;20012;-56
2024/04/20 09:34:53;;;;;;;9.70;3.33;;;;;;;;;;5373335;26;20032;-58
2024/04/20 09:37:18;;;;;;;10.50;3.50;;;;;;;;;;5375023;26;20344;-59
2024/04/20 09:39:43;;;;;;;5.70;1.43;;;;;;;;;;5375706;26;20275;-58
2024/04/20 09:42:10;;;;;;;9.52;1.60;;;;;;;;;;5378681;26;20001;-60
2024/04/20 09:44:39;;;;;;;9.73;1.42;;;;;;;;;;5372583;26;20001;-59
2024/04/20 09:47:04;;;;;;;6.97;1.50;;;;;;;;;;5379114;26;20015;-59
2024/04/20 09:49:30;;;;;;;15.03;2.40;;;;;;;;;;5380062;26;20004;-58
2024/04/20 09:52:02;;;;;;;11.63;1.35;;;;;;;;;;5387686;26;20234;-59
2024/04/20 09:54:30;;;;;;;8.13;1.67;;;;;;;;;;5379384;26;20540;-59
2024/04/20 09:56:56;;;;;;;6.90;1.70;;;;;;;;;;5379334;26;20000;-58
2024/04/20 09:59:22;;;;;;;;;;;;;;;;;;5386919;26;20012;-60
2024/04/20 10:01:49;;;;;;;4.77;1.60;;;;;;;;;;5377255;26;19925;-59
2024/04/20 10:04:15;;;;;;;12.03;2.53;;;;;;;;;;5383049;26;19992;-59
2024/04/20 10:06:40;;;;;;;4.38;2.10;;;;;;;;;;5372637;26;20004;-60
2024/04/20 10:09:07;;;;;;;8.52;2.50;;;;;;;;;;5379205;26;20037;-57
2024/04/20 10:11:35;;;;;;;8.40;2.20;;;;;;;;;;5382182;26;20028;-56
2024/04/20 10:14:03;;;;;;;6.47;2.10;;;;;;;;;;5376810;26;20015;-60
2024/04/20 10:16:29;;;;;;;10.03;2.80;;;;;;;;;;5381561;26;20009;-59
2024/04/20 10:18:54;;;;;;;10.25;2.42;;;;;;;;;;5396180;26;20927;-59
2024/04/20 10:21:20;;;;;;;9.57;1.88;;;;;;;;;;5397554;26;19996;-59
2024/04/20 10:23:45;;;;;;;6.63;1.95;;;;;;;;;;5392094;26;19996;-59
2024/04/20 10:26:11;;;;;;;6.78;1.90;;;;;;;;;;5390270;26;19992;-59
2024/04/20 10:28:38;;;;;;;;;;;;;;;;;;5392040;26;19996;-60
2024/04/20 10:31:04;;;;;;;7.38;2.65;;;;;;;;;;5365088;26;19929;-59
2024/04/20 10:33:31;;;;;;;7.07;2.42;;;;;;;;;;5376624;26;20008;-59
2024/04/20 10:36:02;;;;;;;7.97;2.33;;;;;;;;;;5392832;26;20014;-60
2024/04/20 10:38:29;;;;;;;7.10;2.50;;;;;;;;;;5393329;26;20040;-61
2024/04/20 10:40:55;;;;;;;7.97;2.53;;;;;;;;;;5394950;26;20016;-59
2024/04/20 10:43:21;;;;;;;4.15;1.20;;;;;;;;;;5393822;26;20035;-60
2024/04/20 10:45:58;;;;;;;5.30;1.67;;;;;;;;;;5393171;26;20021;-61
2024/04/20 10:48:24;;;;;;;11.02;1.88;;;;;;;;;;5393986;26;19996;-61
2024/04/20 10:50:49;;;;;;;;;;;;;;;;;;5396358;26;20004;-57
2024/04/20 10:53:15;;;;;;;8.97;1.60;;;;;;;;;;5394420;26;19925;-59
2024/04/20 10:55:41;;;;;;;;;;;;;;;;;;5392297;26;20054;-60
2024/04/20 10:58:07;;;;;;;6.13;1.77;;;;;;;;;;5394897;26;19925;-59
2024/04/20 11:00:33;;;;;;;6.07;2.00;;;;;;;;;;5391630;26;20022;-60
2024/04/20 11:02:58;;;;;;;;;;;;;;;;;;5395315;26;20039;-59
2024/04/20 11:05:24;;;;;;;5.07;1.58;;;;;;;;;;5393362;26;19929;-60
2024/04/20 11:07:49;;;;;;;;;;;;;;;;;;5392157;26;20029;-58
2024/04/20 11:10:17;;;;;;;7.40;1.80;;;;;;;;;;5388331;26;19926;-60
2024/04/20 11:12:42;;;;;;;4.73;1.73;;;;;;;;;;5392702;26;20001;-62
2024/04/20 11:15:08;;;;;;;8.23;2.60;;;;;;;;;;5393646;26;19996;-60
2024/04/20 11:17:34;;;;;;;6.25;1.55;;;;;;;;;;5392951;26;20008;-59
2024/04/20 11:20:00;;;;;;;;;;;;;;;;;;5395041;26;20027;-59
2024/04/20 11:22:25;;;;;;;8.47;1.60;;;;;;;;;;5395938;26;19925;-59
2024/04/20 11:24:50;;;;;;;6.93;1.50;;;;;;;;;;5395857;26;20003;-59
2024/04/20 11:27:16;;;;;;;5.90;1.80;;;;;;;;;;5387564;26;20004;-57
2024/04/20 11:29:42;;;;;;;6.75;2.10;;;;;;;;;;5379865;26;20016;-59
2024/04/20 11:32:07;;;;;;;5.47;1.40;;;;;;;;;;5383153;26;20011;-59
2024/04/20 11:34:33;;;;;;;8.05;1.92;;;;;;;;;;5396380;26;20004;-59
2024/04/20 11:36:59;;;;;;;3.25;0.98;;;;;;;;;;5391004;26;20018;-59
2024/04/20 11:39:25;;;;;;;;;;;;;;;;;;5391208;26;20015;-59
2024/04/20 11:42:01;;;;;;;3.53;1.30;;;;;;;;;;5395442;26;19934;-59
2024/04/20 11:44:26;;;;;;;7.97;1.73;;;;;;;;;;5390486;26;19997;-60
2024/04/20 11:46:52;;;;;;;;;;;;;;;;;;5392416;26;20001;-58
2024/04/20 11:49:17;;;;;;;7.73;2.07;;;;;;;;;;5390809;26;19933;-60
2024/04/20 11:54:25;;;;;;;3.50;1.30;;;;;;;;;;5391280;26;20005;-59
2024/04/20 11:56:52;;;;;;;6.97;1.67;;;;;;;;;;5388041;26;20008;-59
2024/04/20 11:59:17;;;;;;;6.27;1.50;;;;;;;;;;5363944;26;19996;-58
2024/04/20 12:01:43;;;;;;;7.13;1.35;;;;;;;;;;5335514;26;20072;-59
2024/04/20 12:04:11;;;;;;;2.25;1.05;;;;;;;;;;5395485;26;20008;-63
2024/04/20 12:06:37;;;;;;;3.33;1.10;;;;;;;;;;5393184;26;20000;-59
2024/04/20 12:09:03;;;;;;;3.53;1.27;;;;;;;;;;5394600;26;20028;-59
2024/04/20 12:11:28;;;;;;;4.43;1.38;;;;;;;;;;5395336;26;20022;-60
2024/04/20 12:13:54;;;;;;;;;;;;;;;;;;5387339;26;20003;-60
2024/04/20 12:16:20;;;;;;;8.83;1.80;;;;;;;;;;5386414;26;22488;-59
2024/04/20 12:18:46;;;;;;;4.50;1.43;;;;;;;;;;5379840;26;20008;-60
2024/04/20 12:21:13;;;;;;;;;;;;;;;;;;5373244;26;19997;-60
2024/04/20 12:23:39;;;;;;;3.22;1.35;;;;;;;;;;5368922;26;19933;-61
2024/04/20 12:26:06;;;;;;;3.75;1.10;;;;;;;;;;5379443;26;20000;-61
2024/04/20 12:28:31;;;;;;;6.05;1.40;;;;;;;;;;5391020;26;19996;-60
2024/04/20 12:30:57;;;;;;;8.13;1.77;;;;;;;;;;5394970;26;20015;-62
2024/04/20 12:33:22;;;;;;;4.18;1.48;;;;;;;;;;5394397;26;20024;-60
2024/04/20 12:35:48;;;;;;;10.23;2.08;;;;;;;;;;5395430;26;20012;-60
2024/04/20 12:38:14;;;;;;;9.65;2.05;;;;;;;;;;5388038;26;20724;-59
2024/04/20 12:40:39;;;;;;;8.02;2.17;;;;;;;;;;5364330;26;20008;-60
2024/04/20 12:43:04;;;;;;;;;;;;;;;;;;5392609;26;20006;-59
2024/04/20 12:45:30;;;;;;;12.07;1.90;;;;;;;;;;5391270;26;19940;-59
2024/04/20 12:47:55;;;;;;;;;;;;;;;;;;5359867;26;20021;-59
2024/04/20 12:50:20;;;;;;;7.38;1.85;;;;;;;;;;5395986;26;19950;-60
2024/04/20 12:52:46;;;;;;;5.85;1.70;;;;;;;;;;5392442;26;20036;-60
2024/04/20 12:55:13;;;;;;;15.07;6.05;;;;;;;;;;5389597;26;20179;-60
2024/04/20 12:57:38;;;;;;;6.37;2.30;;;;;;;;;;5387959;26;20036;-59
2024/04/20 13:00:03;;;;;;;;;;;;;;;;;;5387998;26;20004;-60
2024/04/20 13:02:29;;;;;;;8.07;2.00;;;;;;;;;;5390804;26;20107;-60
2024/04/20 13:04:54;;;;;;;8.73;1.80;;;;;;;;;;5392109;26;20006;-60
2024/04/20 13:07:20;;;;;;;11.90;2.08;;;;;;;;;;5388377;26;19992;-61
2024/04/20 13:09:48;;;;;;;10.13;2.22;;;;;;;;;;5393935;26;20011;-60
2024/04/20 13:12:14;;;;;;;8.07;1.77;;;;;;;;;;5390006;26;20000;-59
2024/04/20 13:14:41;;;;;;;8.52;1.70;;;;;;;;;;5391366;26;20037;-60
2024/04/20 13:17:07;;;;;;;5.27;1.57;;;;;;;;;;5388022;26;20009;-59
2024/04/20 13:19:32;;;;;;;4.93;1.45;;;;;;;;;;5393445;26;20000;-60
2024/04/20 13:21:58;;;;;;;6.28;1.40;;;;;;;;;;5385118;26;20005;-59
2024/04/20 13:24:23;;;;;;;10.18;1.67;;;;;;;;;;5393589;26;20012;-59
2024/04/20 13:26:49;;;;;;;7.03;1.87;;;;;;;;;;5388772;26;20016;-60
2024/04/20 13:29:14;;;;;;;7.47;1.65;;;;;;;;;;5388933;26;20015;-60
2024/04/20 13:31:40;;;;;;;8.23;1.33;;;;;;;;;;5391518;26;19997;-59
2024/04/20 13:34:05;;;;;;;11.15;1.58;;;;;;;;;;5395234;26;20011;-60
2024/04/20 13:36:31;;;;;;;6.38;1.67;;;;;;;;;;5388065;26;20012;-59
2024/04/20 13:38:57;;;;;;;9.68;1.63;;;;;;;;;;5384998;26;20055;-59
2024/04/20 13:41:22;;;;;;;8.73;1.70;;;;;;;;;;5392292;26;20008;-56
2024/04/20 13:43:47;;;;;;;5.33;1.57;;;;;;;;;;5393679;26;20001;-59
2024/04/20 13:46:13;;;;;;;11.02;2.45;;;;;;;;;;5392824;26;20009;-60
2024/04/20 13:48:39;;;;;;;7.15;1.75;;;;;;;;;;5389073;26;20019;-60
2024/04/20 13:51:06;;;;;;;8.30;1.70;;;;;;;;;;5393190;26;19996;-60
2024/04/20 13:53:31;;;;;;;;;;;;;;;;;;5395420;26;20055;-59
2024/04/20 13:55:57;;;;;;;5.83;1.43;;;;;;;;;;5390686;26;19933;-59
2024/04/20 13:58:23;;;;;;;6.03;1.48;;;;;;;;;;5389516;26;20011;-60
2024/04/20 14:00:48;;;;;;;5.70;1.67;;;;;;;;;;5392099;26;20005;-60
2024/04/20 14:03:13;;;;;;;5.80;1.10;;;;;;;;;;5391769;26;19997;-59
2024/04/20 14:05:45;;;;;;;6.13;1.50;;;;;;;;;;5390657;26;20270;-59
2024/04/20 14:08:14;;;;;;;3.43;1.40;;;;;;;;;;5388964;26;20011;-60
2024/04/20 14:10:40;;;;;;;5.97;1.57;;;;;;;;;;5393056;26;20044;-60
2024/04/20 14:13:05;;;;;;;;;;;;;;;;;;5394462;26;20032;-60
2024/04/20 14:15:31;;;;;;;3.80;1.07;;;;;;;;;;5361102;26;19933;-60
2024/04/20 14:17:57;;;;;;;5.68;1.30;;;;;;;;;;5389387;26;20004;-60
2024/04/20 14:20:22;;;;;;;4.50;1.37;;;;;;;;;;5392020;26;20000;-59
2024/04/20 14:22:47;;;;;;;3.60;1.17;;;;;;;;;;5392046;26;20067;-60
2024/04/20 14:25:13;;;;;;;3.27;1.00;;;;;;;;;;5389260;26;20005;-59
2024/04/20 14:27:42;;;;;;;8.15;1.48;;;;;;;;;;5388578;26;20258;-61
2024/04/20 14:30:08;;;;;;;5.87;1.57;;;;;;;;;;5388810;26;19996;-59
2024/04/20 14:32:33;;;;;;;4.13;1.48;;;;;;;;;;5392000;26;20234;-59
2024/04/20 14:34:59;;;;;;;4.35;1.67;;;;;;;;;;5391527;26;20008;-58
2024/04/20 14:37:25;;;;;;;6.57;1.10;;;;;;;;;;5390881;26;20000;-58